Skip to content
Christman Field Latest Observations
Select Units
Date Time
MST
Temp
°F
RH
%
DewPt
°F
Wind
mph
Dir
°
Gust
mph
Dir
°
Press
in Hg
Solar
W/m^2
Prec
in
2022-08-12 16:35 92.8 20.7 46.8 6.0 127 10.2 136 24.964 376.1 0.00
2022-08-12 16:30 92.8 19.9 45.8 4.9 127 6.7 127 24.964 396.3 0.00
2022-08-12 16:25 92.6 20.0 45.8 8.0 89 12.4 86 24.964 411.1 0.00
2022-08-12 16:20 92.7 19.7 45.4 5.8 91 10.6 97 24.964 426.9 0.00
2022-08-12 16:15 92.8 20.0 45.9 6.8 85 11.0 126 24.966 442.0 0.00
2022-08-12 16:10 92.7 20.3 46.1 6.9 126 10.0 105 24.969 455.8 0.00
2022-08-12 16:05 93.0 20.4 46.6 4.4 119 8.5 115 24.970 469.7 0.00
2022-08-12 16:00 92.9 20.7 46.8 5.3 123 9.4 141 24.971 483.1 0.00
2022-08-12 15:55 92.9 20.9 47.2 7.7 148 10.8 151 24.971 487.6 0.00
2022-08-12 15:50 92.6 21.7 47.9 4.4 155 7.4 106 24.973 422.6 0.00
2022-08-12 15:45 92.6 20.3 46.1 5.0 101 9.0 117 24.974 434.7 0.00
2022-08-12 15:40 93.2 19.9 46.1 7.2 108 10.0 94 24.976 505.5 0.00
2022-08-12 15:35 93.3 20.8 47.4 4.3 141 7.6 166 24.976 551.8 0.00
2022-08-12 15:30 93.4 20.4 46.9 4.3 127 7.4 145 24.977 563.3 0.00
2022-08-12 15:25 93.2 20.1 46.3 3.3 131 5.3 101 24.978 576.8 0.00
2022-08-12 15:20 92.4 20.0 45.6 7.1 85 10.7 90 24.978 559.7 0.00
2022-08-12 15:15 92.9 20.7 46.8 8.4 100 11.8 141 24.979 588.8 0.00
2022-08-12 15:10 92.8 21.1 47.3 7.5 144 12.2 157 24.979 587.4 0.00
2022-08-12 15:05 92.7 21.9 48.3 6.5 97 11.6 90 24.981 523.2 0.00
2022-08-12 15:00 92.5 21.2 47.2 8.2 120 14.2 152 24.982 503.7 0.00
2022-08-12 14:55 92.4 21.9 48.0 5.6 153 8.7 204 24.982 613.7 0.00
2022-08-12 14:50 92.2 21.1 46.9 7.0 177 11.6 132 24.984 652.4 0.00
2022-08-12 14:45 92.9 21.2 47.6 9.6 150 13.4 136 24.984 665.5 0.00
2022-08-12 14:40 92.8 20.8 46.9 5.0 158 10.2 144 24.986 676.8 0.00
2022-08-12 14:35 92.8 21.6 47.9 4.3 133 8.3 60 24.988 686.0 0.00
2022-08-12 14:30 92.5 22.7 49.1 4.3 125 8.6 100 24.991 694.8 0.00
2022-08-12 14:25 91.9 22.2 48.0 3.4 99 10.7 100 24.991 704.8 0.00
2022-08-12 14:20 92.2 22.9 48.9 4.0 94 8.3 112 24.994 712.4 0.00
2022-08-12 14:15 92.5 22.2 48.4 6.2 142 10.6 96 24.995 720.1 0.00
2022-08-12 14:10 91.8 24.0 49.9 3.4 172 8.2 163 25.000 729.1 0.00
Date Time
MST
Temp
°C
RH
%
DewPt
°C
Wind
m/s
Dir
°
Gust
m/s
Dir
°
Press
hPa
Solar
W/m^2
Prec
mm
2022-08-12 16:35 33.8 20.7 8.2 2.7 127 4.5 136 845.38 376.1 0.00
2022-08-12 16:30 33.8 19.9 7.7 2.2 127 3.0 127 845.39 396.3 0.00
2022-08-12 16:25 33.7 20.0 7.6 3.6 89 5.5 86 845.37 411.1 0.00
2022-08-12 16:20 33.7 19.7 7.4 2.6 91 4.7 97 845.38 426.9 0.00
2022-08-12 16:15 33.8 20.0 7.7 3.1 85 4.9 126 845.43 442.0 0.00
2022-08-12 16:10 33.7 20.3 7.8 3.1 126 4.4 105 845.53 455.8 0.00
2022-08-12 16:05 33.9 20.4 8.1 2.0 119 3.8 115 845.58 469.7 0.00
2022-08-12 16:00 33.8 20.7 8.2 2.4 123 4.2 141 845.62 483.1 0.00
2022-08-12 15:55 33.8 20.9 8.4 3.5 148 4.8 151 845.62 487.6 0.00
2022-08-12 15:50 33.6 21.7 8.8 2.0 155 3.3 106 845.68 422.6 0.00
2022-08-12 15:45 33.6 20.3 7.8 2.2 101 4.0 117 845.73 434.7 0.00
2022-08-12 15:40 34.0 19.9 7.8 3.2 108 4.5 94 845.79 505.5 0.00
2022-08-12 15:35 34.1 20.8 8.6 1.9 141 3.4 166 845.79 551.8 0.00
2022-08-12 15:30 34.1 20.4 8.3 1.9 127 3.3 145 845.83 563.3 0.00
2022-08-12 15:25 34.0 20.1 8.0 1.5 131 2.4 101 845.86 576.8 0.00
2022-08-12 15:20 33.6 20.0 7.6 3.2 85 4.8 90 845.87 559.7 0.00
2022-08-12 15:15 33.8 20.7 8.2 3.7 100 5.3 141 845.87 588.8 0.00
2022-08-12 15:10 33.8 21.1 8.5 3.4 144 5.4 157 845.88 587.4 0.00
2022-08-12 15:05 33.7 21.9 9.1 2.9 97 5.2 90 845.96 523.2 0.00
2022-08-12 15:00 33.6 21.2 8.5 3.7 120 6.3 152 845.97 503.7 0.00
2022-08-12 14:55 33.6 21.9 8.9 2.5 153 3.9 204 846.00 613.7 0.00
2022-08-12 14:50 33.5 21.1 8.3 3.1 177 5.2 132 846.05 652.4 0.00
2022-08-12 14:45 33.9 21.2 8.7 4.3 150 6.0 136 846.07 665.5 0.00
2022-08-12 14:40 33.8 20.8 8.3 2.2 158 4.6 144 846.13 676.8 0.00
2022-08-12 14:35 33.8 21.6 8.8 1.9 133 3.7 60 846.19 686.0 0.00
2022-08-12 14:30 33.6 22.7 9.5 1.9 125 3.8 100 846.28 694.8 0.00
2022-08-12 14:25 33.3 22.2 8.9 1.5 99 4.8 100 846.30 704.8 0.00
2022-08-12 14:20 33.4 22.9 9.4 1.8 94 3.7 112 846.41 712.4 0.00
2022-08-12 14:15 33.6 22.2 9.1 2.8 142 4.7 96 846.42 720.1 0.00
2022-08-12 14:10 33.2 24.0 9.9 1.5 172 3.7 163 846.59 729.1 0.00
CIRA

Cooperative Institute for Research in the Atmosphere

Current Events

RAMMB SLIDER

RAMMB SLIDER
Colorado State University Ram Logo

Our Mission

The Cooperative Institute for Research in the Atmosphere (CIRA) serves as a nexus for multi-disciplinary cooperation between NOAA research scientists and Colorado State University research staff, faculty, and students, aligning NOAA-identified research theme areas with long-standing academic strengths of the University.

Our mission is: to foster additional collaboration with national and international agencies who are developing related capabilities; to affect the fundamental research conducted at the University towards NOAA’s operational needs; and to communicate our research and its practical implications to the scientific community and the public.

To this end, we are dedicated to: providing high-quality training to ensure operational user proficiency; conducting outreach programs to K-12 education and the general public to promote environmental literacy; and to quantifying and communicating the significant positive societal impacts of NOAA research on our everyday lives.

Our Technology

With NOAA and CSU support CIRA has operated a Geostationary Operational Environmental Satellite (GOES) Earth Station since 1980. Today our collection capability handles multiple simultaneous GOES transmissions, NOAA polar data, Himawari-8 and European MSG. CIRA also plays an important role in each new GOES satellite as one of the primary test sites for initial transmissions and sensor verification.

CIRA operates a high-technology infrastructure to support research in our major theme areas. The infrastructure contains over 300 workstations/servers, a satellite Earth Station with an online archive, several high-performance modelling clusters, and a high-speed network. With its expertise in data fusion, CIRA is developing systems and tools that will simplify the acquisition and manipulation of satellite and model data for scientific research.